createdAt,value
2022-10-22T00:00:13.207Z,14.50
2022-10-22T00:03:01.297Z,14.50
2022-10-22T00:05:50.718Z,14.50
2022-10-22T00:08:38.912Z,14.50
2022-10-22T00:11:27.003Z,14.50
2022-10-22T00:14:15.693Z,14.50
2022-10-22T00:17:05.832Z,14.50
2022-10-22T00:19:58.740Z,14.50
2022-10-22T00:22:48.105Z,14.60
2022-10-22T00:25:37.167Z,14.30
2022-10-22T00:28:25.513Z,14.40
2022-10-22T00:31:15.605Z,14.30
2022-10-22T00:34:03.983Z,14.60
2022-10-22T00:36:52.991Z,14.40
2022-10-22T00:39:42.442Z,14.40
2022-10-22T00:42:30.508Z,14.30
2022-10-22T00:45:24.151Z,14.30
2022-10-22T00:48:14.267Z,14.30
2022-10-22T00:51:05.094Z,14.30
2022-10-22T00:53:56.563Z,14.30
2022-10-22T00:56:46.346Z,14.20
2022-10-22T00:59:35.402Z,14.30
2022-10-22T01:02:23.467Z,14.30
2022-10-22T01:05:11.777Z,14.30
2022-10-22T01:08:00.177Z,14.30
2022-10-22T01:10:58.984Z,14.30
2022-10-22T01:13:55.257Z,14.30
2022-10-22T01:16:50.940Z,14.40
2022-10-22T01:20:04.884Z,14.30
2022-10-22T01:23:03.715Z,14.30
2022-10-22T01:25:59.443Z,14.30
2022-10-22T01:28:59.552Z,14.30
2022-10-22T01:31:54.100Z,14.30
2022-10-22T01:34:45.478Z,14.30
2022-10-22T01:37:37.865Z,14.20
2022-10-22T01:40:28.020Z,14.20
2022-10-22T01:43:16.698Z,14.20
2022-10-22T01:46:08.058Z,14.20
2022-10-22T01:49:18.294Z,14.20
2022-10-22T01:52:16.410Z,14.20
2022-10-22T01:55:18.598Z,14.20
2022-10-22T01:58:20.729Z,14.10
2022-10-22T02:01:17.999Z,14.10
2022-10-22T02:04:12.858Z,13.70
2022-10-22T02:07:05.730Z,14.10
2022-10-22T02:09:55.572Z,14.10
2022-10-22T02:12:44.583Z,14.40
2022-10-22T02:15:36.304Z,14.20
2022-10-22T02:18:29.528Z,14.10
2022-10-22T02:21:17.782Z,14.10
2022-10-22T02:24:07.134Z,14.10
2022-10-22T02:27:02.276Z,14.10
2022-10-22T02:29:57.314Z,14.10
2022-10-22T02:32:51.213Z,14.10
2022-10-22T02:35:42.459Z,14.00
2022-10-22T02:38:31.846Z,14.10
2022-10-22T02:41:20.555Z,14.10
2022-10-22T02:44:11.029Z,14.10
2022-10-22T02:47:00.056Z,14.10
2022-10-22T02:49:48.169Z,14.00
2022-10-22T02:52:37.849Z,14.10
2022-10-22T02:55:26.117Z,14.10
2022-10-22T02:58:14.205Z,14.10
2022-10-22T03:01:02.287Z,14.10
2022-10-22T03:03:50.370Z,14.10
2022-10-22T03:06:38.372Z,14.10
2022-10-22T03:09:27.800Z,14.00
2022-10-22T03:12:15.853Z,14.00
2022-10-22T03:15:03.990Z,14.00
2022-10-22T03:17:51.978Z,14.00
2022-10-22T03:20:39.991Z,14.00
2022-10-22T03:23:28.102Z,14.00
2022-10-22T03:26:17.551Z,14.00
2022-10-22T03:29:06.035Z,13.90
2022-10-22T03:31:54.372Z,13.90
2022-10-22T03:34:42.450Z,13.90
2022-10-22T03:37:30.618Z,13.80
2022-10-22T03:40:19.340Z,13.90
2022-10-22T03:43:08.726Z,13.90
2022-10-22T03:45:56.728Z,13.90
2022-10-22T03:48:44.720Z,13.90
2022-10-22T03:51:32.748Z,13.90
2022-10-22T03:54:20.798Z,13.90
2022-10-22T03:57:09.715Z,14.00
2022-10-22T03:59:59.136Z,13.90
2022-10-22T04:02:47.222Z,13.80
2022-10-22T04:05:35.274Z,13.90
2022-10-22T04:08:23.283Z,13.90
2022-10-22T04:11:12.477Z,13.90
2022-10-22T04:14:00.511Z,13.90
2022-10-22T04:16:49.860Z,13.90
2022-10-22T04:19:38.052Z,13.80
2022-10-22T04:22:26.122Z,13.80
2022-10-22T04:25:14.149Z,13.70
2022-10-22T04:28:02.160Z,13.70
2022-10-22T04:30:50.208Z,13.80
2022-10-22T04:33:40.108Z,13.60
2022-10-22T04:36:29.357Z,13.80
2022-10-22T04:39:17.347Z,13.70
2022-10-22T04:42:05.789Z,13.70
2022-10-22T04:44:53.775Z,13.80
2022-10-22T04:47:42.069Z,13.90
2022-10-22T04:50:31.637Z,13.80
2022-10-22T04:53:19.653Z,13.80
2022-10-22T04:56:09.411Z,13.80
2022-10-22T04:58:59.789Z,13.70
2022-10-22T05:01:47.883Z,13.70
2022-10-22T05:04:36.071Z,13.80
2022-10-22T05:07:25.464Z,13.60
2022-10-22T05:10:13.475Z,13.70
2022-10-22T05:13:01.516Z,13.70
2022-10-22T05:15:49.523Z,13.80
2022-10-22T05:18:37.971Z,13.70
2022-10-22T05:21:26.168Z,13.70
2022-10-22T05:24:15.552Z,13.60
2022-10-22T05:27:03.860Z,13.60
2022-10-22T05:29:51.846Z,13.60
2022-10-22T05:32:39.869Z,13.60
2022-10-22T05:35:27.873Z,13.50
2022-10-22T05:38:15.958Z,13.50
2022-10-22T05:41:07.400Z,13.50
2022-10-22T05:43:56.946Z,13.60
2022-10-22T05:46:44.996Z,13.60
2022-10-22T05:49:33.127Z,13.50
2022-10-22T05:52:21.148Z,13.50
2022-10-22T05:55:09.322Z,13.50
2022-10-22T05:57:58.664Z,13.50
2022-10-22T06:00:46.670Z,13.50
2022-10-22T06:03:34.748Z,13.50
2022-10-22T06:06:27.254Z,13.40
2022-10-22T06:09:18.913Z,13.50
2022-10-22T06:12:09.112Z,13.50
2022-10-22T06:14:58.451Z,13.50
2022-10-22T06:17:47.127Z,13.40
2022-10-22T06:20:35.611Z,13.50
2022-10-22T06:23:23.626Z,13.50
2022-10-22T06:26:12.081Z,13.50
2022-10-22T06:29:00.354Z,13.50
2022-10-22T06:31:49.978Z,13.50
2022-10-22T06:34:38.015Z,13.50
2022-10-22T06:37:26.115Z,13.60
2022-10-22T06:40:14.629Z,13.60
2022-10-22T06:43:02.733Z,13.60
2022-10-22T06:45:50.879Z,13.70
2022-10-22T06:48:40.553Z,13.70
2022-10-22T06:51:29.071Z,13.80
2022-10-22T06:54:17.065Z,13.80
2022-10-22T06:57:05.293Z,13.80
2022-10-22T06:59:53.336Z,13.90
2022-10-22T07:02:41.645Z,13.90
2022-10-22T07:05:31.444Z,13.90
2022-10-22T07:08:19.456Z,13.90
2022-10-22T07:11:09.039Z,14.00
2022-10-22T07:13:58.780Z,14.00
2022-10-22T07:16:46.909Z,14.10
2022-10-22T07:19:35.287Z,14.10
2022-10-22T07:22:24.642Z,14.10
2022-10-22T07:25:12.660Z,14.10
2022-10-22T07:28:00.682Z,14.20
2022-10-22T07:30:48.928Z,14.20
2022-10-22T07:36:26.123Z,14.20
2022-10-22T07:39:15.504Z,14.30
2022-10-22T07:42:03.558Z,14.30
2022-10-22T07:44:51.648Z,14.30
2022-10-22T07:47:39.984Z,14.30
2022-10-22T07:50:28.270Z,14.40
2022-10-22T07:53:16.305Z,14.40
2022-10-22T07:56:06.359Z,14.40
2022-10-22T07:58:54.394Z,14.40
2022-10-22T08:01:42.541Z,14.40
2022-10-22T08:04:30.583Z,14.50
2022-10-22T08:07:18.750Z,14.50
2022-10-22T08:10:07.776Z,14.50
2022-10-22T08:12:57.573Z,14.50
2022-10-22T08:15:46.803Z,14.60
2022-10-22T08:18:34.958Z,14.60
2022-10-22T08:21:23.030Z,14.60
2022-10-22T08:24:11.134Z,14.60
2022-10-22T08:26:59.191Z,14.60
2022-10-22T08:29:48.527Z,14.60
2022-10-22T08:32:36.576Z,14.60
2022-10-22T08:35:24.612Z,14.70
2022-10-22T08:38:12.651Z,14.70
2022-10-22T08:41:08.780Z,14.70
2022-10-22T08:44:25.323Z,14.80
2022-10-22T08:47:28.709Z,14.90
2022-10-22T08:50:23.941Z,14.90
2022-10-22T08:53:15.160Z,15.00
2022-10-22T08:56:03.178Z,15.00
2022-10-22T08:58:57.642Z,15.10
2022-10-22T09:01:48.744Z,15.10
2022-10-22T09:04:43.867Z,15.20
2022-10-22T09:07:31.906Z,15.20
2022-10-22T09:10:22.043Z,15.30
2022-10-22T09:13:11.548Z,15.40
2022-10-22T09:16:06.938Z,15.40
2022-10-22T09:19:06.829Z,15.50
2022-10-22T09:22:03.141Z,15.50
2022-10-22T09:24:57.342Z,15.60
2022-10-22T09:27:45.457Z,15.70
2022-10-22T09:30:37.896Z,15.80
2022-10-22T09:33:28.183Z,15.90
2022-10-22T09:36:19.908Z,16.00
2022-10-22T09:39:23.694Z,15.90
2022-10-22T09:42:20.082Z,16.00
2022-10-22T09:45:16.457Z,16.00
2022-10-22T09:48:12.742Z,16.00
2022-10-22T09:51:06.922Z,16.00
2022-10-22T09:53:58.697Z,16.00
2022-10-22T09:56:59.529Z,16.10
2022-10-22T09:59:50.217Z,16.10
2022-10-22T10:02:42.025Z,16.10
2022-10-22T10:05:32.233Z,16.20
2022-10-22T10:08:20.558Z,16.10
2022-10-22T10:11:15.904Z,16.10
2022-10-22T10:14:13.859Z,16.10
2022-10-22T10:17:07.034Z,16.10
2022-10-22T10:20:04.502Z,16.10
2022-10-22T10:22:59.371Z,16.00
2022-10-22T10:25:55.354Z,16.00
2022-10-22T10:29:01.063Z,16.00
2022-10-22T10:32:07.659Z,15.90
2022-10-22T10:35:04.253Z,15.90
2022-10-22T10:38:09.219Z,15.90
2022-10-22T10:41:05.065Z,16.00
2022-10-22T10:44:12.887Z,16.00
2022-10-22T10:47:13.570Z,16.10
2022-10-22T10:50:18.723Z,16.20
2022-10-22T10:53:15.584Z,16.20
2022-10-22T10:56:15.703Z,16.30
2022-10-22T10:59:14.585Z,16.40
2022-10-22T11:02:22.938Z,16.40
2022-10-22T11:05:42.839Z,16.40
2022-10-22T11:08:33.569Z,16.50
2022-10-22T11:11:27.648Z,16.60
2022-10-22T11:14:20.624Z,16.60
2022-10-22T11:17:15.163Z,16.60
2022-10-22T11:20:13.270Z,16.70
2022-10-22T11:23:21.664Z,16.80
2022-10-22T11:26:16.426Z,16.80
2022-10-22T11:29:08.238Z,16.80
2022-10-22T11:31:57.620Z,16.90
2022-10-22T11:34:51.343Z,16.90
2022-10-22T11:37:39.952Z,16.90
2022-10-22T11:40:36.046Z,17.00
2022-10-22T11:43:29.538Z,17.00
2022-10-22T11:46:30.046Z,17.10
2022-10-22T11:49:24.521Z,17.10
2022-10-22T11:52:28.945Z,17.20
2022-10-22T11:55:34.302Z,17.20
2022-10-22T11:58:33.270Z,17.30
2022-10-22T12:01:26.929Z,17.30
2022-10-22T12:04:21.986Z,17.30
2022-10-22T12:07:33.892Z,17.40
2022-10-22T12:10:23.905Z,17.40
2022-10-22T12:13:14.568Z,17.50
2022-10-22T12:16:05.165Z,17.50
2022-10-22T12:19:01.586Z,17.50
2022-10-22T12:21:53.689Z,17.00
2022-10-22T12:24:46.592Z,17.60
2022-10-22T12:27:37.579Z,17.70
2022-10-22T12:30:28.060Z,17.70
2022-10-22T12:33:21.785Z,17.80
2022-10-22T12:36:16.822Z,17.80
2022-10-22T12:39:11.824Z,17.90
2022-10-22T12:42:01.167Z,17.90
2022-10-22T12:44:49.189Z,17.90
2022-10-22T12:47:37.244Z,18.00
2022-10-22T12:50:32.907Z,18.10
2022-10-22T12:53:24.871Z,18.10
2022-10-22T12:56:15.414Z,18.20
2022-10-22T12:59:08.569Z,18.30
2022-10-22T13:01:57.758Z,18.30
2022-10-22T13:05:15.829Z,18.40
2022-10-22T13:08:08.476Z,18.50
2022-10-22T13:10:56.693Z,18.60
2022-10-22T13:13:45.633Z,18.70
2022-10-22T13:19:48.718Z,18.80
2022-10-22T13:22:38.929Z,18.80
2022-10-22T13:25:30.002Z,18.80
2022-10-22T13:28:21.183Z,18.80
2022-10-22T13:31:12.540Z,18.90
2022-10-22T13:34:09.737Z,18.90
2022-10-22T13:36:59.837Z,19.00
2022-10-22T13:39:47.838Z,19.10
2022-10-22T13:42:35.999Z,19.20
2022-10-22T13:45:24.048Z,19.30
2022-10-22T13:48:16.112Z,19.40
2022-10-22T13:51:07.717Z,19.30
2022-10-22T13:53:55.790Z,19.20
2022-10-22T13:57:03.420Z,19.30
2022-10-22T14:00:23.036Z,19.40
2022-10-22T14:03:13.117Z,19.60
2022-10-22T14:06:01.773Z,19.90
2022-10-22T14:08:56.204Z,20.20
2022-10-22T14:11:44.392Z,20.50
2022-10-22T14:14:32.420Z,20.60
2022-10-22T14:17:20.729Z,20.90
2022-10-22T14:20:15.223Z,21.30
2022-10-22T14:23:22.204Z,21.30
2022-10-22T14:26:20.887Z,21.20
2022-10-22T14:29:10.614Z,21.40
2022-10-22T14:31:59.427Z,21.80
2022-10-22T14:34:47.925Z,21.80
2022-10-22T14:37:36.022Z,21.40
2022-10-22T14:40:26.952Z,21.00
2022-10-22T14:43:22.169Z,20.60
2022-10-22T14:46:15.112Z,20.20
2022-10-22T14:49:03.342Z,19.90
2022-10-22T14:51:51.623Z,19.70
2022-10-22T14:54:39.715Z,19.50
2022-10-22T14:57:27.860Z,19.30
2022-10-22T15:00:19.169Z,19.20
2022-10-22T15:03:07.311Z,19.00
2022-10-22T15:08:45.405Z,18.90
2022-10-22T15:11:33.562Z,18.80
2022-10-22T15:14:21.640Z,18.80
2022-10-22T15:17:11.005Z,18.70
2022-10-22T15:20:00.522Z,18.70
2022-10-22T15:22:48.545Z,18.60
2022-10-22T15:25:36.868Z,18.60
2022-10-22T15:28:26.024Z,18.50
2022-10-22T15:31:15.916Z,18.40
2022-10-22T15:34:05.420Z,18.20
2022-10-22T15:36:56.413Z,18.20
2022-10-22T15:39:44.484Z,18.00
2022-10-22T15:42:32.537Z,17.90
2022-10-22T15:45:21.291Z,17.80
2022-10-22T15:48:11.405Z,17.70
2022-10-22T15:51:08.082Z,17.60
2022-10-22T15:56:45.924Z,17.40
2022-10-22T15:59:33.969Z,17.20
2022-10-22T16:02:21.984Z,17.20
2022-10-22T16:05:10.820Z,17.10
2022-10-22T16:08:00.161Z,17.10
2022-10-22T16:10:48.515Z,17.00
2022-10-22T16:13:37.306Z,16.90
2022-10-22T16:16:26.013Z,16.80
2022-10-22T16:19:15.838Z,16.70
2022-10-22T16:22:03.882Z,16.70
2022-10-22T16:24:53.228Z,16.60
2022-10-22T16:27:41.364Z,16.50
2022-10-22T16:30:29.521Z,16.50
2022-10-22T16:33:17.551Z,16.40
2022-10-22T16:36:06.650Z,16.40
2022-10-22T16:38:56.270Z,16.30
2022-10-22T16:41:45.675Z,16.20
2022-10-22T16:44:33.680Z,16.20
2022-10-22T16:47:21.710Z,16.20
2022-10-22T16:50:10.467Z,16.20
2022-10-22T16:52:58.612Z,16.10
2022-10-22T16:55:46.708Z,16.10
2022-10-22T16:58:36.069Z,16.00
2022-10-22T17:01:26.807Z,15.90
2022-10-22T17:04:17.211Z,15.90
2022-10-22T17:07:05.258Z,15.90
2022-10-22T17:09:53.317Z,15.90
2022-10-22T17:12:41.983Z,15.90
2022-10-22T17:15:31.795Z,15.90
2022-10-22T17:18:19.860Z,15.90
2022-10-22T17:21:09.267Z,16.00
2022-10-22T17:23:58.835Z,16.00
2022-10-22T17:26:47.691Z,16.00
2022-10-22T17:29:37.198Z,16.00
2022-10-22T17:32:26.540Z,16.00
2022-10-22T17:35:16.785Z,16.00
2022-10-22T17:38:04.825Z,16.10
2022-10-22T17:40:52.923Z,16.00
2022-10-22T17:43:41.035Z,16.00
2022-10-22T17:46:30.408Z,16.00
2022-10-22T17:49:21.215Z,16.00
2022-10-22T17:52:11.167Z,16.00
2022-10-22T17:54:59.183Z,16.00
2022-10-22T17:57:47.201Z,16.00
2022-10-22T18:00:36.704Z,16.00
2022-10-22T18:03:24.810Z,16.00
2022-10-22T18:06:14.621Z,16.00
2022-10-22T18:09:04.976Z,16.00
2022-10-22T18:11:55.211Z,16.00
2022-10-22T18:14:43.232Z,16.00
2022-10-22T18:17:32.681Z,16.00
2022-10-22T18:20:22.827Z,16.00
2022-10-22T18:23:13.504Z,16.00
2022-10-22T18:26:01.601Z,15.90
2022-10-22T18:28:50.068Z,15.90
2022-10-22T18:31:38.077Z,15.90
2022-10-22T18:34:26.122Z,15.90
2022-10-22T18:37:14.141Z,15.80
2022-10-22T18:40:03.524Z,15.80
2022-10-22T18:42:51.717Z,15.80
2022-10-22T18:45:42.728Z,15.80
2022-10-22T18:48:30.779Z,15.70
2022-10-22T18:51:18.841Z,15.70
2022-10-22T18:54:22.035Z,15.70
2022-10-22T18:57:11.812Z,15.70
2022-10-22T18:59:59.875Z,15.60
2022-10-22T19:02:47.872Z,15.60
2022-10-22T19:05:35.880Z,15.60
2022-10-22T19:08:23.949Z,15.50
2022-10-22T19:11:13.860Z,15.50
2022-10-22T19:14:03.389Z,15.50
2022-10-22T19:16:51.408Z,15.50
2022-10-22T19:19:39.411Z,15.50
2022-10-22T19:22:27.444Z,15.50
2022-10-22T19:25:15.530Z,15.50
2022-10-22T19:28:03.573Z,15.50
2022-10-22T19:30:52.913Z,15.50
2022-10-22T19:33:41.082Z,15.40
2022-10-22T19:36:30.942Z,15.40
2022-10-22T19:39:19.291Z,15.50
2022-10-22T19:42:07.333Z,15.50
2022-10-22T19:44:55.378Z,15.50
2022-10-22T19:47:45.176Z,15.50
2022-10-22T19:50:35.084Z,15.50
2022-10-22T19:53:23.109Z,15.50
2022-10-22T19:56:12.344Z,15.50
2022-10-22T19:59:00.774Z,15.50
2022-10-22T20:01:48.922Z,15.50
2022-10-22T20:04:38.480Z,15.50
2022-10-22T20:07:29.002Z,15.50
2022-10-22T20:10:17.168Z,15.50
2022-10-22T20:13:05.243Z,15.50
2022-10-22T20:15:53.595Z,15.60
2022-10-22T20:18:41.606Z,15.60
2022-10-22T20:21:31.654Z,15.50
2022-10-22T20:24:19.743Z,15.50
2022-10-22T20:27:07.801Z,15.50
2022-10-22T20:29:55.828Z,15.60
2022-10-22T20:32:44.322Z,15.50
2022-10-22T20:35:32.511Z,15.50
2022-10-22T20:38:21.864Z,15.50
2022-10-22T20:41:12.794Z,15.60
2022-10-22T20:44:01.201Z,15.60
2022-10-22T20:46:49.273Z,15.60
2022-10-22T20:49:37.332Z,15.60
2022-10-22T20:52:25.413Z,15.60
2022-10-22T20:58:04.184Z,15.60
2022-10-22T21:00:52.741Z,15.60
2022-10-22T21:03:40.844Z,15.50
2022-10-22T21:06:30.573Z,15.60
2022-10-22T21:12:08.584Z,15.50
2022-10-22T21:14:56.595Z,15.50
2022-10-22T21:17:44.618Z,15.50
2022-10-22T21:20:32.651Z,15.50
2022-10-22T21:23:20.665Z,15.50
2022-10-22T21:26:08.889Z,15.50
2022-10-22T21:28:58.235Z,15.50
2022-10-22T21:31:46.330Z,15.50
2022-10-22T21:34:38.152Z,15.40
2022-10-22T21:37:29.888Z,15.40
2022-10-22T21:40:17.941Z,15.40
2022-10-22T21:43:05.969Z,15.40
2022-10-22T21:46:07.781Z,15.40
2022-10-22T21:48:59.108Z,15.40
2022-10-22T21:51:47.146Z,15.30
2022-10-22T21:54:37.332Z,15.30
2022-10-22T21:57:25.373Z,15.30
2022-10-22T22:00:14.875Z,15.30
2022-10-22T22:03:06.868Z,15.20
2022-10-22T22:05:58.674Z,15.20
2022-10-22T22:08:46.837Z,15.10
2022-10-22T22:11:34.887Z,15.00
2022-10-22T22:14:22.909Z,15.00
2022-10-22T22:17:11.364Z,15.00
2022-10-22T22:20:00.703Z,14.90
2022-10-22T22:22:48.715Z,14.90
2022-10-22T22:25:36.746Z,14.90
2022-10-22T22:28:24.776Z,14.80
2022-10-22T22:31:14.813Z,14.80
2022-10-22T22:34:04.617Z,14.80
2022-10-22T22:36:53.966Z,14.70
2022-10-22T22:39:41.989Z,14.70
2022-10-22T22:42:29.994Z,14.60
2022-10-22T22:45:18.210Z,14.60
2022-10-22T22:48:07.196Z,14.60
2022-10-22T22:50:55.401Z,14.60
2022-10-22T22:53:44.857Z,14.60
2022-10-22T22:56:34.449Z,14.50
2022-10-22T22:59:22.553Z,14.40
2022-10-22T23:02:10.581Z,14.50
2022-10-22T23:04:58.817Z,14.50
2022-10-22T23:07:46.823Z,14.40
2022-10-22T23:10:36.192Z,14.40
2022-10-22T23:13:24.250Z,14.30
2022-10-22T23:16:15.657Z,14.30
2022-10-22T23:19:05.252Z,14.20
2022-10-22T23:21:54.871Z,14.20
2022-10-22T23:24:42.923Z,14.10
2022-10-22T23:27:32.274Z,14.10
2022-10-22T23:30:20.513Z,14.00
2022-10-22T23:33:09.470Z,14.00
2022-10-22T23:35:57.541Z,14.00
2022-10-22T23:38:45.625Z,14.00
2022-10-22T23:41:33.963Z,14.00
2022-10-22T23:44:23.605Z,14.00
2022-10-22T23:47:11.605Z,14.00
2022-10-22T23:49:59.683Z,14.00
2022-10-22T23:52:47.731Z,14.00
2022-10-22T23:55:37.803Z,14.00
2022-10-22T23:58:25.846Z,14.00
